Terminal Aerodrome Forecast
Issued by NWS

Home | Current Version | Previous Version | Text Only | Print | Product List | Glossary On
Versions: 1 2 3 4 5 6 7 8 9 10 11 12
000
FTUS45 KRIW 040531
TAFLND
TAF
KLND 040531Z 0406/0506 26007KT P6SM FEW120 SCT200
     FM041800 03008KT P6SM SCT110
     FM050300 28007KT 5SM FU SCT120=

USA.gov is the U.S. government's official web portal to all federal, state and local government web resources and services.